createdAt,value
2023-01-29T00:01:46.481Z,22.33
2023-01-29T00:06:44.180Z,20.63
2023-01-29T00:11:41.824Z,30.80
2023-01-29T00:17:13.109Z,21.95
2023-01-29T00:22:10.869Z,18.83
2023-01-29T00:27:08.134Z,25.40
2023-01-29T00:32:05.580Z,27.05
2023-01-29T00:37:05.027Z,28.33
2023-01-29T00:42:20.576Z,24.70
2023-01-29T00:47:36.155Z,23.63
2023-01-29T00:52:33.867Z,29.60
2023-01-29T00:57:33.246Z,23.05
2023-01-29T01:02:49.590Z,24.23
2023-01-29T01:07:49.241Z,21.50
2023-01-29T01:12:47.149Z,25.35
2023-01-29T01:17:44.540Z,27.80
2023-01-29T01:22:41.875Z,30.38
2023-01-29T01:27:42.423Z,22.65
2023-01-29T01:32:40.547Z,25.02
2023-01-29T01:37:38.870Z,27.60
2023-01-29T01:42:36.682Z,30.13
2023-01-29T01:48:06.077Z,27.30
2023-01-29T01:53:11.669Z,23.15
2023-01-29T01:58:22.493Z,28.48
2023-01-29T02:03:40.214Z,28.05
2023-01-29T02:09:20.723Z,22.42
2023-01-29T02:14:18.305Z,23.45
2023-01-29T02:19:47.931Z,26.67
2023-01-29T02:24:59.907Z,26.13
2023-01-29T02:30:13.616Z,30.17
2023-01-29T02:35:26.484Z,24.08
2023-01-29T02:40:38.743Z,28.23
2023-01-29T02:45:56.139Z,28.80
2023-01-29T02:51:00.750Z,28.73
2023-01-29T02:56:12.793Z,25.45
2023-01-29T03:01:40.112Z,29.40
2023-01-29T03:06:45.312Z,27.60
2023-01-29T03:11:47.954Z,28.08
2023-01-29T03:16:53.360Z,32.25
2023-01-29T03:21:59.774Z,29.92
2023-01-29T03:27:20.151Z,29.95
2023-01-29T03:32:21.224Z,29.42
2023-01-29T03:37:26.215Z,25.90
2023-01-29T03:42:32.344Z,25.23
2023-01-29T03:47:48.044Z,19.80
2023-01-29T03:53:15.504Z,31.88
2023-01-29T03:58:37.815Z,20.98
2023-01-29T04:03:58.494Z,18.70
2023-01-29T04:09:13.778Z,26.75
2023-01-29T04:14:12.231Z,20.35
2023-01-29T04:19:09.719Z,20.70
2023-01-29T04:24:08.198Z,20.27
2023-01-29T04:29:30.299Z,21.52
2023-01-29T04:34:42.195Z,21.83
2023-01-29T04:39:48.868Z,25.85
2023-01-29T04:45:09.341Z,20.27
2023-01-29T04:50:29.689Z,21.17
2023-01-29T04:55:42.403Z,22.13
2023-01-29T05:00:45.822Z,24.92
2023-01-29T05:05:50.339Z,21.05
2023-01-29T05:10:52.508Z,27.55
2023-01-29T05:15:58.003Z,26.92
2023-01-29T05:20:57.630Z,18.80
2023-01-29T05:25:57.409Z,18.92
2023-01-29T05:30:57.363Z,24.88
2023-01-29T05:35:55.605Z,17.27
2023-01-29T05:40:52.902Z,17.83
2023-01-29T05:45:58.390Z,20.80
2023-01-29T05:51:01.221Z,20.73
2023-01-29T05:56:02.080Z,21.63
2023-01-29T06:01:07.569Z,19.17
2023-01-29T06:06:05.031Z,23.73
2023-01-29T06:11:02.655Z,20.20
2023-01-29T06:16:00.057Z,20.75
2023-01-29T06:21:01.994Z,28.65
2023-01-29T06:26:07.991Z,25.50
2023-01-29T06:31:37.365Z,24.73
2023-01-29T06:36:26.318Z,18.58
2023-01-29T06:41:25.729Z,20.53
2023-01-29T06:46:23.088Z,18.77
2023-01-29T06:51:21.551Z,18.50
2023-01-29T06:56:18.815Z,19.77
2023-01-29T07:01:34.581Z,13.85
2023-01-29T07:06:33.579Z,17.20
2023-01-29T07:11:30.893Z,21.23
2023-01-29T07:16:28.174Z,25.85
2023-01-29T07:21:25.758Z,21.20
2023-01-29T07:26:23.255Z,21.00
2023-01-29T07:31:20.808Z,24.83
2023-01-29T07:36:18.571Z,18.42
2023-01-29T07:41:15.916Z,18.85
2023-01-29T07:46:13.299Z,24.40
2023-01-29T07:51:10.755Z,22.70
2023-01-29T07:56:08.201Z,26.60
2023-01-29T08:01:07.921Z,25.95
2023-01-29T08:06:05.506Z,81.90
2023-01-29T08:11:04.255Z,47.30
2023-01-29T08:16:03.025Z,25.80
2023-01-29T08:21:03.629Z,19.88
2023-01-29T08:26:03.684Z,19.17
2023-01-29T08:31:02.133Z,20.67
2023-01-29T08:35:59.382Z,15.82
2023-01-29T08:40:56.581Z,12.00
2023-01-29T08:45:53.802Z,14.52
2023-01-29T08:50:51.584Z,14.88
2023-01-29T08:55:48.791Z,20.25
2023-01-29T09:00:46.118Z,15.52
2023-01-29T09:05:43.513Z,15.40
2023-01-29T09:10:40.775Z,18.95
2023-01-29T09:15:37.986Z,18.60
2023-01-29T09:20:38.037Z,16.25
2023-01-29T09:25:36.077Z,16.13
2023-01-29T09:30:34.853Z,13.68
2023-01-29T09:35:32.871Z,13.15
2023-01-29T09:40:57.471Z,16.17
2023-01-29T09:46:05.063Z,16.20
2023-01-29T09:51:08.745Z,14.43
2023-01-29T09:56:20.210Z,13.75
2023-01-29T10:01:37.132Z,14.07
2023-01-29T10:06:40.626Z,11.55
2023-01-29T10:11:47.187Z,9.27
2023-01-29T10:17:35.426Z,7.88
2023-01-29T10:23:05.100Z,10.23
2023-01-29T10:28:02.408Z,10.50
2023-01-29T10:33:10.930Z,9.13
2023-01-29T10:38:17.060Z,15.13
2023-01-29T10:43:59.368Z,11.38
2023-01-29T10:49:05.588Z,9.70
2023-01-29T10:54:40.343Z,12.43
2023-01-29T11:00:06.389Z,8.88
2023-01-29T11:05:03.762Z,13.20
2023-01-29T11:10:05.814Z,10.68
2023-01-29T11:15:27.362Z,12.27
2023-01-29T11:20:29.662Z,12.75
2023-01-29T11:25:29.249Z,11.68
2023-01-29T11:30:31.310Z,10.73
2023-01-29T11:35:30.821Z,13.88
2023-01-29T11:40:48.390Z,9.85
2023-01-29T11:45:46.203Z,12.82
2023-01-29T11:50:44.313Z,11.65
2023-01-29T11:55:50.724Z,10.73
2023-01-29T12:00:52.403Z,9.77
2023-01-29T12:06:03.619Z,12.63
2023-01-29T12:11:26.087Z,13.32
2023-01-29T12:16:49.311Z,11.75
2023-01-29T12:21:57.723Z,15.60
2023-01-29T12:27:16.307Z,12.40
2023-01-29T12:32:37.170Z,13.50
2023-01-29T12:38:21.036Z,14.10
2023-01-29T12:43:26.932Z,11.65
2023-01-29T12:48:46.574Z,12.10
2023-01-29T12:54:15.170Z,12.00
2023-01-29T12:59:18.411Z,10.32
2023-01-29T13:04:35.525Z,11.63
2023-01-29T13:09:35.121Z,11.48
2023-01-29T13:14:40.762Z,17.20
2023-01-29T13:19:45.683Z,8.38
2023-01-29T13:24:49.946Z,9.85
2023-01-29T13:29:57.345Z,14.65
2023-01-29T13:35:06.950Z,13.57
2023-01-29T13:40:07.300Z,12.00
2023-01-29T13:50:25.019Z,14.48
2023-01-29T13:55:31.553Z,14.70
2023-01-29T14:00:34.865Z,13.70
2023-01-29T14:05:32.223Z,10.07
2023-01-29T14:10:31.562Z,11.10
2023-01-29T14:15:42.477Z,10.52
2023-01-29T14:20:49.199Z,12.82
2023-01-29T14:25:46.909Z,11.00
2023-01-29T14:30:49.218Z,10.60
2023-01-29T14:35:51.257Z,11.50
2023-01-29T14:40:48.690Z,13.95
2023-01-29T14:45:47.054Z,11.93
2023-01-29T14:50:51.158Z,12.45
2023-01-29T14:56:17.278Z,12.50
2023-01-29T15:01:31.183Z,15.10
2023-01-29T15:06:46.194Z,21.65
2023-01-29T15:12:03.881Z,14.73
2023-01-29T15:17:10.144Z,11.43
2023-01-29T15:22:13.571Z,12.52
2023-01-29T15:27:15.090Z,16.33
2023-01-29T15:32:28.366Z,14.60
2023-01-29T15:37:33.872Z,17.67
2023-01-29T15:42:48.525Z,13.27
2023-01-29T15:47:46.681Z,16.75
2023-01-29T15:52:46.125Z,19.77
2023-01-29T15:57:45.287Z,19.77
2023-01-29T16:02:42.582Z,17.77
2023-01-29T16:07:40.175Z,20.42
2023-01-29T16:12:38.338Z,21.63
2023-01-29T16:17:40.834Z,22.50
2023-01-29T16:22:38.670Z,22.67
2023-01-29T16:27:36.261Z,25.00
2023-01-29T16:32:34.407Z,25.90
2023-01-29T16:37:36.516Z,24.83
2023-01-29T16:42:36.285Z,29.35
2023-01-29T16:47:39.000Z,25.10
2023-01-29T16:52:36.443Z,26.17
2023-01-29T16:57:34.552Z,28.05
2023-01-29T17:02:41.946Z,36.95
2023-01-29T17:07:44.755Z,28.08
2023-01-29T17:12:42.236Z,22.10
2023-01-29T17:17:40.009Z,24.63
2023-01-29T17:22:37.363Z,23.05
2023-01-29T17:27:34.711Z,21.50
2023-01-29T17:32:44.569Z,25.35
2023-01-29T17:37:42.847Z,21.38
2023-01-29T17:42:41.167Z,27.67
2023-01-29T17:47:38.493Z,28.77
2023-01-29T17:52:36.365Z,25.95
2023-01-29T17:57:33.946Z,25.40
2023-01-29T18:02:33.960Z,32.90
2023-01-29T18:12:28.575Z,20.85
2023-01-29T18:17:28.854Z,29.05
2023-01-29T18:22:26.605Z,28.30
2023-01-29T18:27:23.888Z,26.55
2023-01-29T18:32:30.502Z,20.10
2023-01-29T18:37:30.131Z,25.90
2023-01-29T18:42:27.625Z,30.90
2023-01-29T18:47:25.877Z,35.28
2023-01-29T18:52:23.583Z,28.50
2023-01-29T18:58:29.312Z,27.88
2023-01-29T19:02:40.145Z,27.75
2023-01-29T19:07:38.051Z,31.98
2023-01-29T19:12:35.618Z,34.25
2023-01-29T19:17:33.297Z,29.67
2023-01-29T19:22:33.393Z,22.10
2023-01-29T19:32:30.798Z,28.05
2023-01-29T19:37:28.616Z,28.95
2023-01-29T19:42:27.558Z,38.80
2023-01-29T19:47:25.289Z,37.65
2023-01-29T19:52:51.492Z,27.10
2023-01-29T19:57:51.983Z,26.55
2023-01-29T20:02:49.360Z,24.52
2023-01-29T20:07:46.810Z,25.25
2023-01-29T20:12:45.252Z,25.77
2023-01-29T20:17:45.653Z,25.90
2023-01-29T20:22:42.973Z,22.90
2023-01-29T20:27:40.394Z,29.35
2023-01-29T20:32:37.766Z,23.30
2023-01-29T20:37:36.018Z,36.90
2023-01-29T20:42:33.527Z,29.75
2023-01-29T20:47:31.003Z,36.17
2023-01-29T20:52:28.613Z,25.58
2023-01-29T20:57:26.013Z,40.05
2023-01-29T21:02:23.505Z,47.05
2023-01-29T21:07:27.112Z,32.47
2023-01-29T21:12:24.793Z,27.23
2023-01-29T21:17:28.231Z,30.05
2023-01-29T21:22:25.570Z,44.95
2023-01-29T21:27:26.001Z,31.58
2023-01-29T21:32:23.434Z,40.55
2023-01-29T21:37:20.801Z,34.38
2023-01-29T21:42:39.515Z,24.05
2023-01-29T21:47:36.771Z,28.20
2023-01-29T21:52:34.023Z,30.80
2023-01-29T21:57:31.329Z,25.23
2023-01-29T22:02:32.357Z,25.35
2023-01-29T22:07:30.575Z,24.35
2023-01-29T22:12:28.152Z,29.35
2023-01-29T22:17:26.100Z,29.92
2023-01-29T22:22:26.114Z,32.22
2023-01-29T22:27:31.410Z,28.67
2023-01-29T22:32:28.742Z,35.20
2023-01-29T22:37:26.191Z,45.75
2023-01-29T22:42:26.396Z,31.85
2023-01-29T22:47:23.863Z,33.50
2023-01-29T22:52:24.237Z,41.05
2023-01-29T22:57:24.231Z,31.25
2023-01-29T23:02:21.525Z,30.13
2023-01-29T23:07:28.263Z,22.95
2023-01-29T23:12:26.207Z,24.27
2023-01-29T23:17:23.672Z,20.38
2023-01-29T23:22:23.975Z,21.45
2023-01-29T23:27:21.582Z,17.10
2023-01-29T23:32:21.970Z,21.35
2023-01-29T23:37:19.773Z,19.73
2023-01-29T23:42:29.274Z,19.58
2023-01-29T23:47:26.492Z,19.13
2023-01-29T23:52:23.825Z,23.00
2023-01-29T23:57:21.244Z,20.90
